sensor_id;sensor_type;location;lat;lon;timestamp;P1;durP1;ratioP1;P2;durP2;ratioP2
22298;SDS011;11317;51.072;17.036;2022-11-12T00:01:26;26.75;;;12.77;;
22298;SDS011;11317;51.072;17.036;2022-11-12T00:03:52;26.20;;;12.63;;
22298;SDS011;11317;51.072;17.036;2022-11-12T00:06:19;24.00;;;11.88;;
22298;SDS011;11317;51.072;17.036;2022-11-12T00:08:45;25.67;;;11.63;;
22298;SDS011;11317;51.072;17.036;2022-11-12T00:11:11;24.10;;;12.15;;
22298;SDS011;11317;51.072;17.036;2022-11-12T00:13:37;24.50;;;12.07;;
22298;SDS011;11317;51.072;17.036;2022-11-12T00:16:03;30.90;;;13.35;;
22298;SDS011;11317;51.072;17.036;2022-11-12T00:18:29;29.35;;;13.35;;
22298;SDS011;11317;51.072;17.036;2022-11-12T00:20:55;29.35;;;14.40;;
22298;SDS011;11317;51.072;17.036;2022-11-12T00:23:22;32.42;;;14.50;;
22298;SDS011;11317;51.072;17.036;2022-11-12T00:25:56;23.50;;;13.40;;
22298;SDS011;11317;51.072;17.036;2022-11-12T00:28:23;27.55;;;13.27;;
22298;SDS011;11317;51.072;17.036;2022-11-12T00:30:49;26.65;;;12.95;;
22298;SDS011;11317;51.072;17.036;2022-11-12T00:33:15;31.02;;;13.73;;
22298;SDS011;11317;51.072;17.036;2022-11-12T00:35:41;24.60;;;13.02;;
22298;SDS011;11317;51.072;17.036;2022-11-12T00:38:07;26.17;;;12.70;;
22298;SDS011;11317;51.072;17.036;2022-11-12T00:40:33;28.08;;;13.98;;
22298;SDS011;11317;51.072;17.036;2022-11-12T00:42:59;34.05;;;15.55;;
22298;SDS011;11317;51.072;17.036;2022-11-12T00:45:25;29.50;;;15.80;;
22298;SDS011;11317;51.072;17.036;2022-11-12T00:47:54;28.10;;;14.27;;
22298;SDS011;11317;51.072;17.036;2022-11-12T00:50:20;27.40;;;14.70;;
22298;SDS011;11317;51.072;17.036;2022-11-12T00:52:46;25.70;;;14.57;;
22298;SDS011;11317;51.072;17.036;2022-11-12T00:55:12;28.35;;;13.98;;
22298;SDS011;11317;51.072;17.036;2022-11-12T00:57:38;26.08;;;14.60;;
22298;SDS011;11317;51.072;17.036;2022-11-12T01:00:04;28.60;;;13.88;;
22298;SDS011;11317;51.072;17.036;2022-11-12T01:02:30;32.03;;;15.13;;
22298;SDS011;11317;51.072;17.036;2022-11-12T01:04:56;32.50;;;14.65;;
22298;SDS011;11317;51.072;17.036;2022-11-12T01:07:22;33.53;;;14.98;;
22298;SDS011;11317;51.072;17.036;2022-11-12T01:09:48;32.60;;;14.48;;
22298;SDS011;11317;51.072;17.036;2022-11-12T01:12:14;26.20;;;13.43;;
22298;SDS011;11317;51.072;17.036;2022-11-12T01:14:40;29.60;;;14.50;;
22298;SDS011;11317;51.072;17.036;2022-11-12T01:17:06;30.60;;;14.30;;
22298;SDS011;11317;51.072;17.036;2022-11-12T01:19:32;32.40;;;14.48;;
22298;SDS011;11317;51.072;17.036;2022-11-12T01:21:58;28.60;;;14.52;;
22298;SDS011;11317;51.072;17.036;2022-11-12T01:24:24;28.33;;;13.52;;
22298;SDS011;11317;51.072;17.036;2022-11-12T01:26:50;26.52;;;14.68;;
22298;SDS011;11317;51.072;17.036;2022-11-12T01:29:16;27.75;;;12.23;;
22298;SDS011;11317;51.072;17.036;2022-11-12T01:31:42;31.52;;;14.48;;
22298;SDS011;11317;51.072;17.036;2022-11-12T01:34:08;27.13;;;12.98;;
22298;SDS011;11317;51.072;17.036;2022-11-12T01:36:35;28.83;;;14.13;;
22298;SDS011;11317;51.072;17.036;2022-11-12T01:39:03;33.35;;;14.68;;
22298;SDS011;11317;51.072;17.036;2022-11-12T01:41:30;33.40;;;16.48;;
22298;SDS011;11317;51.072;17.036;2022-11-12T01:52:18;32.08;;;14.38;;
22298;SDS011;11317;51.072;17.036;2022-11-12T01:54:49;32.97;;;14.93;;
22298;SDS011;11317;51.072;17.036;2022-11-12T01:57:19;30.67;;;14.55;;
22298;SDS011;11317;51.072;17.036;2022-11-12T01:59:52;29.15;;;14.50;;
22298;SDS011;11317;51.072;17.036;2022-11-12T02:02:22;28.60;;;15.35;;
22298;SDS011;11317;51.072;17.036;2022-11-12T02:04:48;32.65;;;16.17;;
22298;SDS011;11317;51.072;17.036;2022-11-12T02:07:15;39.92;;;17.50;;
22298;SDS011;11317;51.072;17.036;2022-11-12T02:09:42;32.10;;;15.38;;
22298;SDS011;11317;51.072;17.036;2022-11-12T02:12:08;29.58;;;13.50;;
22298;SDS011;11317;51.072;17.036;2022-11-12T02:14:54;28.83;;;14.27;;
22298;SDS011;11317;51.072;17.036;2022-11-12T02:17:20;30.52;;;14.73;;
22298;SDS011;11317;51.072;17.036;2022-11-12T02:19:46;27.85;;;14.20;;
22298;SDS011;11317;51.072;17.036;2022-11-12T02:22:12;26.75;;;13.38;;
22298;SDS011;11317;51.072;17.036;2022-11-12T02:24:38;28.63;;;14.15;;
22298;SDS011;11317;51.072;17.036;2022-11-12T02:27:04;29.65;;;13.02;;
22298;SDS011;11317;51.072;17.036;2022-11-12T02:29:31;27.70;;;13.55;;
22298;SDS011;11317;51.072;17.036;2022-11-12T02:31:57;29.83;;;13.18;;
22298;SDS011;11317;51.072;17.036;2022-11-12T02:34:23;28.35;;;13.63;;
22298;SDS011;11317;51.072;17.036;2022-11-12T02:36:49;28.55;;;13.88;;
22298;SDS011;11317;51.072;17.036;2022-11-12T02:39:15;28.48;;;12.65;;
22298;SDS011;11317;51.072;17.036;2022-11-12T02:41:41;28.20;;;12.25;;
22298;SDS011;11317;51.072;17.036;2022-11-12T02:44:07;30.20;;;12.25;;
22298;SDS011;11317;51.072;17.036;2022-11-12T02:46:33;23.33;;;12.23;;
22298;SDS011;11317;51.072;17.036;2022-11-12T02:48:59;25.88;;;12.38;;
22298;SDS011;11317;51.072;17.036;2022-11-12T02:51:25;26.65;;;13.55;;
22298;SDS011;11317;51.072;17.036;2022-11-12T02:53:51;25.38;;;11.95;;
22298;SDS011;11317;51.072;17.036;2022-11-12T02:56:17;22.27;;;10.23;;
22298;SDS011;11317;51.072;17.036;2022-11-12T02:58:43;21.55;;;9.90;;
22298;SDS011;11317;51.072;17.036;2022-11-12T03:01:10;18.02;;;9.38;;
22298;SDS011;11317;51.072;17.036;2022-11-12T03:03:36;21.20;;;8.35;;
22298;SDS011;11317;51.072;17.036;2022-11-12T03:06:02;19.20;;;9.07;;
22298;SDS011;11317;51.072;17.036;2022-11-12T03:08:27;17.77;;;9.48;;
22298;SDS011;11317;51.072;17.036;2022-11-12T03:10:53;20.02;;;9.27;;
22298;SDS011;11317;51.072;17.036;2022-11-12T03:13:19;19.77;;;9.57;;
22298;SDS011;11317;51.072;17.036;2022-11-12T03:15:46;20.40;;;9.55;;
22298;SDS011;11317;51.072;17.036;2022-11-12T03:18:11;17.00;;;8.77;;
22298;SDS011;11317;51.072;17.036;2022-11-12T03:20:37;17.23;;;7.72;;
22298;SDS011;11317;51.072;17.036;2022-11-12T03:23:04;15.20;;;7.82;;
22298;SDS011;11317;51.072;17.036;2022-11-12T03:25:32;16.98;;;8.82;;
22298;SDS011;11317;51.072;17.036;2022-11-12T03:27:59;17.83;;;9.68;;
22298;SDS011;11317;51.072;17.036;2022-11-12T03:30:26;14.25;;;7.32;;
22298;SDS011;11317;51.072;17.036;2022-11-12T03:32:53;15.43;;;7.65;;
22298;SDS011;11317;51.072;17.036;2022-11-12T03:35:19;17.40;;;8.10;;
22298;SDS011;11317;51.072;17.036;2022-11-12T03:37:46;16.42;;;8.18;;
22298;SDS011;11317;51.072;17.036;2022-11-12T03:40:12;20.92;;;8.43;;
22298;SDS011;11317;51.072;17.036;2022-11-12T03:42:38;15.35;;;7.70;;
22298;SDS011;11317;51.072;17.036;2022-11-12T03:45:09;21.35;;;7.60;;
22298;SDS011;11317;51.072;17.036;2022-11-12T03:47:35;18.05;;;8.15;;
22298;SDS011;11317;51.072;17.036;2022-11-12T03:50:00;15.30;;;7.10;;
22298;SDS011;11317;51.072;17.036;2022-11-12T03:52:26;17.00;;;8.07;;
22298;SDS011;11317;51.072;17.036;2022-11-12T03:54:52;14.00;;;7.15;;
22298;SDS011;11317;51.072;17.036;2022-11-12T03:57:18;14.68;;;7.10;;
22298;SDS011;11317;51.072;17.036;2022-11-12T03:59:45;12.60;;;7.03;;
22298;SDS011;11317;51.072;17.036;2022-11-12T04:02:11;16.08;;;7.30;;
22298;SDS011;11317;51.072;17.036;2022-11-12T04:04:38;13.90;;;7.13;;
22298;SDS011;11317;51.072;17.036;2022-11-12T04:07:23;18.88;;;7.75;;
22298;SDS011;11317;51.072;17.036;2022-11-12T04:10:07;12.65;;;6.15;;
22298;SDS011;11317;51.072;17.036;2022-11-12T04:12:33;15.10;;;6.47;;
22298;SDS011;11317;51.072;17.036;2022-11-12T04:15:17;15.75;;;7.00;;
22298;SDS011;11317;51.072;17.036;2022-11-12T04:17:43;12.80;;;6.93;;
22298;SDS011;11317;51.072;17.036;2022-11-12T04:20:28;15.38;;;6.20;;
22298;SDS011;11317;51.072;17.036;2022-11-12T04:23:13;12.65;;;6.20;;
22298;SDS011;11317;51.072;17.036;2022-11-12T04:25:39;11.38;;;5.93;;
22298;SDS011;11317;51.072;17.036;2022-11-12T04:28:23;16.73;;;6.70;;
22298;SDS011;11317;51.072;17.036;2022-11-12T04:30:49;14.18;;;5.57;;
22298;SDS011;11317;51.072;17.036;2022-11-12T04:33:15;14.27;;;6.93;;
22298;SDS011;11317;51.072;17.036;2022-11-12T04:35:41;13.02;;;6.13;;
22298;SDS011;11317;51.072;17.036;2022-11-12T04:38:07;12.18;;;6.60;;
22298;SDS011;11317;51.072;17.036;2022-11-12T04:40:33;16.48;;;7.28;;
22298;SDS011;11317;51.072;17.036;2022-11-12T04:43:17;15.05;;;6.40;;
22298;SDS011;11317;51.072;17.036;2022-11-12T04:46:02;12.18;;;6.70;;
22298;SDS011;11317;51.072;17.036;2022-11-12T04:48:29;14.43;;;6.65;;
22298;SDS011;11317;51.072;17.036;2022-11-12T04:50:59;11.73;;;6.32;;
22298;SDS011;11317;51.072;17.036;2022-11-12T04:53:28;16.92;;;6.93;;
22298;SDS011;11317;51.072;17.036;2022-11-12T04:55:55;12.90;;;7.25;;
22298;SDS011;11317;51.072;17.036;2022-11-12T04:58:22;13.77;;;6.00;;
22298;SDS011;11317;51.072;17.036;2022-11-12T05:00:49;12.90;;;6.22;;
22298;SDS011;11317;51.072;17.036;2022-11-12T05:03:15;12.63;;;6.65;;
22298;SDS011;11317;51.072;17.036;2022-11-12T05:05:41;9.90;;;6.05;;
22298;SDS011;11317;51.072;17.036;2022-11-12T05:08:07;11.43;;;6.30;;
22298;SDS011;11317;51.072;17.036;2022-11-12T05:10:33;12.93;;;6.80;;
22298;SDS011;11317;51.072;17.036;2022-11-12T05:12:59;12.43;;;6.60;;
22298;SDS011;11317;51.072;17.036;2022-11-12T05:15:25;12.70;;;7.03;;
22298;SDS011;11317;51.072;17.036;2022-11-12T05:17:51;12.55;;;5.68;;
22298;SDS011;11317;51.072;17.036;2022-11-12T05:20:17;13.40;;;5.85;;
22298;SDS011;11317;51.072;17.036;2022-11-12T05:22:43;14.75;;;6.28;;
22298;SDS011;11317;51.072;17.036;2022-11-12T05:25:09;13.88;;;5.38;;
22298;SDS011;11317;51.072;17.036;2022-11-12T05:27:35;12.48;;;6.28;;
22298;SDS011;11317;51.072;17.036;2022-11-12T05:30:01;11.77;;;6.20;;
22298;SDS011;11317;51.072;17.036;2022-11-12T05:32:28;11.40;;;5.25;;
22298;SDS011;11317;51.072;17.036;2022-11-12T05:34:53;12.25;;;5.80;;
22298;SDS011;11317;51.072;17.036;2022-11-12T05:37:19;13.25;;;6.78;;
22298;SDS011;11317;51.072;17.036;2022-11-12T05:39:45;12.50;;;6.13;;
22298;SDS011;11317;51.072;17.036;2022-11-12T05:42:11;9.85;;;5.20;;
22298;SDS011;11317;51.072;17.036;2022-11-12T05:44:37;11.50;;;5.72;;
22298;SDS011;11317;51.072;17.036;2022-11-12T05:47:03;11.35;;;6.78;;
22298;SDS011;11317;51.072;17.036;2022-11-12T05:49:29;10.38;;;5.90;;
22298;SDS011;11317;51.072;17.036;2022-11-12T05:51:55;13.00;;;5.85;;
22298;SDS011;11317;51.072;17.036;2022-11-12T05:54:21;10.35;;;5.25;;
22298;SDS011;11317;51.072;17.036;2022-11-12T05:56:50;12.68;;;6.18;;
22298;SDS011;11317;51.072;17.036;2022-11-12T05:59:17;8.73;;;5.22;;
22298;SDS011;11317;51.072;17.036;2022-11-12T06:01:43;9.57;;;5.18;;
22298;SDS011;11317;51.072;17.036;2022-11-12T06:04:12;9.70;;;5.40;;
22298;SDS011;11317;51.072;17.036;2022-11-12T06:06:39;8.23;;;4.65;;
22298;SDS011;11317;51.072;17.036;2022-11-12T06:09:05;10.60;;;4.28;;
22298;SDS011;11317;51.072;17.036;2022-11-12T06:11:31;8.43;;;4.70;;
22298;SDS011;11317;51.072;17.036;2022-11-12T06:13:57;8.68;;;5.20;;
22298;SDS011;11317;51.072;17.036;2022-11-12T06:16:23;9.98;;;5.32;;
22298;SDS011;11317;51.072;17.036;2022-11-12T06:18:49;12.95;;;5.85;;
22298;SDS011;11317;51.072;17.036;2022-11-12T06:21:14;7.80;;;4.82;;
22298;SDS011;11317;51.072;17.036;2022-11-12T06:23:43;9.55;;;5.78;;
22298;SDS011;11317;51.072;17.036;2022-11-12T06:26:16;11.18;;;5.30;;
22298;SDS011;11317;51.072;17.036;2022-11-12T06:28:42;8.10;;;4.85;;
22298;SDS011;11317;51.072;17.036;2022-11-12T06:31:08;8.10;;;5.05;;
22298;SDS011;11317;51.072;17.036;2022-11-12T06:33:34;11.07;;;5.57;;
22298;SDS011;11317;51.072;17.036;2022-11-12T06:36:02;9.40;;;4.95;;
22298;SDS011;11317;51.072;17.036;2022-11-12T06:38:29;9.98;;;5.28;;
22298;SDS011;11317;51.072;17.036;2022-11-12T06:40:59;10.32;;;5.00;;
22298;SDS011;11317;51.072;17.036;2022-11-12T06:43:26;15.00;;;5.43;;
22298;SDS011;11317;51.072;17.036;2022-11-12T06:45:53;9.63;;;4.97;;
22298;SDS011;11317;51.072;17.036;2022-11-12T06:48:19;8.25;;;4.85;;
22298;SDS011;11317;51.072;17.036;2022-11-12T06:50:45;7.53;;;4.93;;
22298;SDS011;11317;51.072;17.036;2022-11-12T06:53:11;10.75;;;5.15;;
22298;SDS011;11317;51.072;17.036;2022-11-12T06:55:37;8.48;;;4.38;;
22298;SDS011;11317;51.072;17.036;2022-11-12T06:58:03;6.85;;;4.60;;
22298;SDS011;11317;51.072;17.036;2022-11-12T07:00:29;8.40;;;5.18;;
22298;SDS011;11317;51.072;17.036;2022-11-12T07:02:55;12.35;;;5.80;;
22298;SDS011;11317;51.072;17.036;2022-11-12T07:05:21;10.85;;;5.75;;
22298;SDS011;11317;51.072;17.036;2022-11-12T07:07:47;8.45;;;4.93;;
22298;SDS011;11317;51.072;17.036;2022-11-12T07:10:14;10.77;;;5.13;;
22298;SDS011;11317;51.072;17.036;2022-11-12T07:12:39;9.85;;;5.00;;
22298;SDS011;11317;51.072;17.036;2022-11-12T07:15:06;7.35;;;4.85;;
22298;SDS011;11317;51.072;17.036;2022-11-12T07:17:31;7.80;;;4.32;;
22298;SDS011;11317;51.072;17.036;2022-11-12T07:19:57;6.93;;;4.55;;
22298;SDS011;11317;51.072;17.036;2022-11-12T07:22:23;8.82;;;4.97;;
22298;SDS011;11317;51.072;17.036;2022-11-12T07:24:49;8.23;;;4.13;;
22298;SDS011;11317;51.072;17.036;2022-11-12T07:27:14;9.23;;;4.28;;
22298;SDS011;11317;51.072;17.036;2022-11-12T07:29:40;8.07;;;4.70;;
22298;SDS011;11317;51.072;17.036;2022-11-12T07:32:06;9.00;;;4.63;;
22298;SDS011;11317;51.072;17.036;2022-11-12T07:34:32;8.75;;;4.93;;
22298;SDS011;11317;51.072;17.036;2022-11-12T07:36:58;8.40;;;4.45;;
22298;SDS011;11317;51.072;17.036;2022-11-12T07:39:24;9.27;;;5.38;;
22298;SDS011;11317;51.072;17.036;2022-11-12T07:41:50;11.02;;;5.80;;
22298;SDS011;11317;51.072;17.036;2022-11-12T07:44:16;9.15;;;4.63;;
22298;SDS011;11317;51.072;17.036;2022-11-12T07:46:42;11.75;;;5.60;;
22298;SDS011;11317;51.072;17.036;2022-11-12T07:49:08;9.25;;;5.18;;
22298;SDS011;11317;51.072;17.036;2022-11-12T07:51:34;8.60;;;5.03;;
22298;SDS011;11317;51.072;17.036;2022-11-12T07:54:00;6.30;;;4.20;;
22298;SDS011;11317;51.072;17.036;2022-11-12T07:56:26;7.50;;;4.93;;
22298;SDS011;11317;51.072;17.036;2022-11-12T07:58:53;7.30;;;4.13;;
22298;SDS011;11317;51.072;17.036;2022-11-12T08:03:45;7.53;;;4.80;;
22298;SDS011;11317;51.072;17.036;2022-11-12T08:06:11;9.88;;;4.60;;
22298;SDS011;11317;51.072;17.036;2022-11-12T08:08:36;9.95;;;5.95;;
22298;SDS011;11317;51.072;17.036;2022-11-12T08:11:02;8.40;;;4.78;;
22298;SDS011;11317;51.072;17.036;2022-11-12T08:13:28;16.27;;;9.20;;
22298;SDS011;11317;51.072;17.036;2022-11-12T08:15:57;21.65;;;10.32;;
22298;SDS011;11317;51.072;17.036;2022-11-12T08:18:24;24.67;;;11.93;;
22298;SDS011;11317;51.072;17.036;2022-11-12T08:20:50;27.02;;;11.40;;
22298;SDS011;11317;51.072;17.036;2022-11-12T08:23:16;26.17;;;10.38;;
22298;SDS011;11317;51.072;17.036;2022-11-12T08:25:42;20.52;;;9.55;;
22298;SDS011;11317;51.072;17.036;2022-11-12T08:28:08;16.65;;;8.25;;
22298;SDS011;11317;51.072;17.036;2022-11-12T08:30:34;16.90;;;8.00;;
22298;SDS011;11317;51.072;17.036;2022-11-12T08:33:01;14.55;;;7.00;;
22298;SDS011;11317;51.072;17.036;2022-11-12T08:35:29;16.23;;;6.68;;
22298;SDS011;11317;51.072;17.036;2022-11-12T08:40:29;8.27;;;4.18;;
22298;SDS011;11317;51.072;17.036;2022-11-12T08:42:59;7.35;;;3.95;;
22298;SDS011;11317;51.072;17.036;2022-11-12T08:45:27;6.60;;;3.85;;
22298;SDS011;11317;51.072;17.036;2022-11-12T08:48:00;7.35;;;3.60;;
22298;SDS011;11317;51.072;17.036;2022-11-12T08:50:28;5.70;;;3.90;;
22298;SDS011;11317;51.072;17.036;2022-11-12T08:53:00;7.13;;;3.88;;
22298;SDS011;11317;51.072;17.036;2022-11-12T08:55:31;6.97;;;4.00;;
22298;SDS011;11317;51.072;17.036;2022-11-12T08:57:58;5.03;;;3.80;;
22298;SDS011;11317;51.072;17.036;2022-11-12T09:00:30;8.00;;;4.25;;
22298;SDS011;11317;51.072;17.036;2022-11-12T09:03:03;7.45;;;3.78;;
22298;SDS011;11317;51.072;17.036;2022-11-12T09:05:30;6.82;;;3.72;;
22298;SDS011;11317;51.072;17.036;2022-11-12T09:08:03;5.05;;;3.40;;
22298;SDS011;11317;51.072;17.036;2022-11-12T09:10:31;5.22;;;3.60;;
22298;SDS011;11317;51.072;17.036;2022-11-12T09:12:57;6.45;;;3.78;;
22298;SDS011;11317;51.072;17.036;2022-11-12T09:15:23;5.68;;;3.65;;
22298;SDS011;11317;51.072;17.036;2022-11-12T09:17:56;5.85;;;3.58;;
22298;SDS011;11317;51.072;17.036;2022-11-12T09:20:23;6.88;;;3.75;;
22298;SDS011;11317;51.072;17.036;2022-11-12T09:22:50;5.05;;;3.63;;
22298;SDS011;11317;51.072;17.036;2022-11-12T09:25:16;5.97;;;3.50;;
22298;SDS011;11317;51.072;17.036;2022-11-12T09:27:42;5.60;;;3.20;;
22298;SDS011;11317;51.072;17.036;2022-11-12T09:30:08;5.20;;;3.55;;
22298;SDS011;11317;51.072;17.036;2022-11-12T09:32:34;6.00;;;3.80;;
22298;SDS011;11317;51.072;17.036;2022-11-12T09:35:00;6.07;;;3.22;;
22298;SDS011;11317;51.072;17.036;2022-11-12T09:37:26;5.00;;;3.15;;
22298;SDS011;11317;51.072;17.036;2022-11-12T09:39:52;4.80;;;3.40;;
22298;SDS011;11317;51.072;17.036;2022-11-12T09:42:20;6.00;;;3.58;;
22298;SDS011;11317;51.072;17.036;2022-11-12T09:47:35;6.20;;;3.40;;
22298;SDS011;11317;51.072;17.036;2022-11-12T09:52:59;5.03;;;3.10;;
22298;SDS011;11317;51.072;17.036;2022-11-12T09:55:37;6.40;;;3.53;;
22298;SDS011;11317;51.072;17.036;2022-11-12T09:58:09;6.07;;;3.53;;
22298;SDS011;11317;51.072;17.036;2022-11-12T10:00:39;6.78;;;3.20;;
22298;SDS011;11317;51.072;17.036;2022-11-12T10:03:17;8.30;;;3.30;;
22298;SDS011;11317;51.072;17.036;2022-11-12T10:06:15;5.95;;;3.35;;
22298;SDS011;11317;51.072;17.036;2022-11-12T10:08:49;5.70;;;4.07;;
22298;SDS011;11317;51.072;17.036;2022-11-12T10:24:44;5.15;;;3.40;;
22298;SDS011;11317;51.072;17.036;2022-11-12T10:27:14;5.32;;;3.35;;
22298;SDS011;11317;51.072;17.036;2022-11-12T10:29:48;6.57;;;3.40;;
22298;SDS011;11317;51.072;17.036;2022-11-12T10:32:26;5.40;;;2.90;;
22298;SDS011;11317;51.072;17.036;2022-11-12T10:34:52;9.23;;;3.65;;
22298;SDS011;11317;51.072;17.036;2022-11-12T10:39:44;5.38;;;3.10;;
22298;SDS011;11317;51.072;17.036;2022-11-12T10:42:18;5.97;;;3.20;;
22298;SDS011;11317;51.072;17.036;2022-11-12T10:45:20;8.10;;;3.97;;
22298;SDS011;11317;51.072;17.036;2022-11-12T10:47:46;5.38;;;3.30;;
22298;SDS011;11317;51.072;17.036;2022-11-12T10:50:33;5.90;;;3.70;;
22298;SDS011;11317;51.072;17.036;2022-11-12T10:53:04;6.38;;;3.53;;
22298;SDS011;11317;51.072;17.036;2022-11-12T10:55:33;6.00;;;3.67;;
22298;SDS011;11317;51.072;17.036;2022-11-12T11:00:36;5.97;;;3.35;;
22298;SDS011;11317;51.072;17.036;2022-11-12T11:03:21;7.20;;;3.60;;
22298;SDS011;11317;51.072;17.036;2022-11-12T11:05:59;5.65;;;3.33;;
22298;SDS011;11317;51.072;17.036;2022-11-12T11:08:52;5.78;;;3.17;;
22298;SDS011;11317;51.072;17.036;2022-11-12T11:11:32;5.82;;;3.28;;
22298;SDS011;11317;51.072;17.036;2022-11-12T11:14:18;4.72;;;3.13;;
22298;SDS011;11317;51.072;17.036;2022-11-12T11:16:53;6.82;;;3.17;;
22298;SDS011;11317;51.072;17.036;2022-11-12T11:19:39;6.22;;;3.50;;
22298;SDS011;11317;51.072;17.036;2022-11-12T11:22:10;6.18;;;3.25;;
22298;SDS011;11317;51.072;17.036;2022-11-12T11:25:07;5.82;;;3.33;;
22298;SDS011;11317;51.072;17.036;2022-11-12T11:27:45;6.07;;;2.90;;
22298;SDS011;11317;51.072;17.036;2022-11-12T11:31:06;7.10;;;3.65;;
22298;SDS011;11317;51.072;17.036;2022-11-12T11:34:17;5.75;;;3.40;;
22298;SDS011;11317;51.072;17.036;2022-11-12T11:37:00;10.57;;;3.92;;
22298;SDS011;11317;51.072;17.036;2022-11-12T11:48:00;6.45;;;3.13;;
22298;SDS011;11317;51.072;17.036;2022-11-12T11:50:41;4.63;;;2.90;;
22298;SDS011;11317;51.072;17.036;2022-11-12T11:56:22;4.95;;;2.88;;
22298;SDS011;11317;51.072;17.036;2022-11-12T12:04:23;5.60;;;2.92;;
22298;SDS011;11317;51.072;17.036;2022-11-12T12:09:48;6.05;;;3.20;;
22298;SDS011;11317;51.072;17.036;2022-11-12T12:12:35;4.95;;;2.55;;
22298;SDS011;11317;51.072;17.036;2022-11-12T12:15:18;5.25;;;3.08;;
22298;SDS011;11317;51.072;17.036;2022-11-12T12:18:06;6.07;;;2.92;;
22298;SDS011;11317;51.072;17.036;2022-11-12T12:26:06;6.05;;;2.95;;
22298;SDS011;11317;51.072;17.036;2022-11-12T12:31:13;4.90;;;2.25;;
22298;SDS011;11317;51.072;17.036;2022-11-12T12:33:47;6.97;;;3.00;;
22298;SDS011;11317;51.072;17.036;2022-11-12T12:36:17;3.50;;;2.30;;
22298;SDS011;11317;51.072;17.036;2022-11-12T12:41:45;6.53;;;2.78;;
22298;SDS011;11317;51.072;17.036;2022-11-12T12:44:23;5.10;;;2.50;;
22298;SDS011;11317;51.072;17.036;2022-11-12T12:47:13;4.63;;;2.28;;
22298;SDS011;11317;51.072;17.036;2022-11-12T12:49:39;4.40;;;2.45;;
22298;SDS011;11317;51.072;17.036;2022-11-12T12:52:05;7.60;;;2.70;;
22298;SDS011;11317;51.072;17.036;2022-11-12T12:57:01;6.35;;;2.60;;
22298;SDS011;11317;51.072;17.036;2022-11-12T12:59:28;6.28;;;2.85;;
22298;SDS011;11317;51.072;17.036;2022-11-12T13:02:12;2.67;;;2.00;;
22298;SDS011;11317;51.072;17.036;2022-11-12T13:04:51;5.57;;;2.83;;
22298;SDS011;11317;51.072;17.036;2022-11-12T13:07:35;3.83;;;2.45;;
22298;SDS011;11317;51.072;17.036;2022-11-12T13:15:44;4.88;;;2.50;;
22298;SDS011;11317;51.072;17.036;2022-11-12T13:18:16;5.65;;;2.67;;
22298;SDS011;11317;51.072;17.036;2022-11-12T13:21:20;7.50;;;2.78;;
22298;SDS011;11317;51.072;17.036;2022-11-12T13:29:21;3.97;;;2.70;;
22298;SDS011;11317;51.072;17.036;2022-11-12T13:31:47;3.83;;;2.50;;
22298;SDS011;11317;51.072;17.036;2022-11-12T13:34:24;5.57;;;2.88;;
22298;SDS011;11317;51.072;17.036;2022-11-12T13:37:00;6.72;;;2.58;;
22298;SDS011;11317;51.072;17.036;2022-11-12T13:39:30;5.30;;;2.67;;
22298;SDS011;11317;51.072;17.036;2022-11-12T13:41:59;4.93;;;2.60;;
22298;SDS011;11317;51.072;17.036;2022-11-12T13:44:45;5.20;;;2.60;;
22298;SDS011;11317;51.072;17.036;2022-11-12T13:47:18;3.38;;;2.55;;
22298;SDS011;11317;51.072;17.036;2022-11-12T13:49:45;4.80;;;2.45;;
22298;SDS011;11317;51.072;17.036;2022-11-12T13:52:13;6.28;;;3.08;;
22298;SDS011;11317;51.072;17.036;2022-11-12T13:54:40;3.35;;;2.63;;
22298;SDS011;11317;51.072;17.036;2022-11-12T13:57:39;8.00;;;3.10;;
22298;SDS011;11317;51.072;17.036;2022-11-12T14:02:33;5.82;;;3.00;;
22298;SDS011;11317;51.072;17.036;2022-11-12T14:05:02;8.00;;;2.85;;
22298;SDS011;11317;51.072;17.036;2022-11-12T14:15:22;6.40;;;3.60;;
22298;SDS011;11317;51.072;17.036;2022-11-12T14:20:35;7.90;;;4.05;;
22298;SDS011;11317;51.072;17.036;2022-11-12T14:23:16;6.43;;;4.28;;
22298;SDS011;11317;51.072;17.036;2022-11-12T14:25:44;6.07;;;3.70;;
22298;SDS011;11317;51.072;17.036;2022-11-12T14:28:34;10.55;;;4.38;;
22298;SDS011;11317;51.072;17.036;2022-11-12T14:31:01;7.15;;;4.20;;
22298;SDS011;11317;51.072;17.036;2022-11-12T14:33:28;8.95;;;4.10;;
22298;SDS011;11317;51.072;17.036;2022-11-12T14:35:59;11.93;;;5.13;;
22298;SDS011;11317;51.072;17.036;2022-11-12T14:38:29;11.43;;;6.32;;
22298;SDS011;11317;51.072;17.036;2022-11-12T14:41:01;15.55;;;7.75;;
22298;SDS011;11317;51.072;17.036;2022-11-12T14:43:33;16.63;;;7.57;;
22298;SDS011;11317;51.072;17.036;2022-11-12T14:46:25;12.07;;;7.15;;
22298;SDS011;11317;51.072;17.036;2022-11-12T14:49:03;12.77;;;7.57;;
22298;SDS011;11317;51.072;17.036;2022-11-12T14:51:42;11.90;;;6.82;;
22298;SDS011;11317;51.072;17.036;2022-11-12T14:54:16;15.63;;;7.40;;
22298;SDS011;11317;51.072;17.036;2022-11-12T14:57:08;13.23;;;6.47;;
22298;SDS011;11317;51.072;17.036;2022-11-12T14:59:41;16.27;;;6.63;;
22298;SDS011;11317;51.072;17.036;2022-11-12T15:02:09;12.52;;;5.90;;
22298;SDS011;11317;51.072;17.036;2022-11-12T15:04:49;10.80;;;5.78;;
22298;SDS011;11317;51.072;17.036;2022-11-12T15:08:26;13.25;;;6.13;;
22298;SDS011;11317;51.072;17.036;2022-11-12T15:13:15;12.50;;;6.05;;
22298;SDS011;11317;51.072;17.036;2022-11-12T15:18:17;11.93;;;6.10;;
22298;SDS011;11317;51.072;17.036;2022-11-12T15:20:58;14.63;;;5.70;;
22298;SDS011;11317;51.072;17.036;2022-11-12T15:23:36;11.60;;;5.75;;
22298;SDS011;11317;51.072;17.036;2022-11-12T15:26:25;11.88;;;5.53;;
22298;SDS011;11317;51.072;17.036;2022-11-12T15:28:59;9.95;;;5.43;;
22298;SDS011;11317;51.072;17.036;2022-11-12T15:31:46;10.10;;;5.72;;
22298;SDS011;11317;51.072;17.036;2022-11-12T15:34:20;13.32;;;5.90;;
22298;SDS011;11317;51.072;17.036;2022-11-12T15:36:54;11.07;;;5.40;;
22298;SDS011;11317;51.072;17.036;2022-11-12T15:39:20;11.20;;;5.95;;
22298;SDS011;11317;51.072;17.036;2022-11-12T15:41:54;12.68;;;6.15;;
22298;SDS011;11317;51.072;17.036;2022-11-12T15:44:32;13.30;;;6.70;;
22298;SDS011;11317;51.072;17.036;2022-11-12T15:47:00;14.45;;;6.05;;
22298;SDS011;11317;51.072;17.036;2022-11-12T15:49:27;10.63;;;5.47;;
22298;SDS011;11317;51.072;17.036;2022-11-12T15:51:53;12.70;;;6.10;;
22298;SDS011;11317;51.072;17.036;2022-11-12T15:54:19;11.48;;;6.80;;
22298;SDS011;11317;51.072;17.036;2022-11-12T15:56:45;15.85;;;6.10;;
22298;SDS011;11317;51.072;17.036;2022-11-12T15:59:13;12.57;;;6.63;;
22298;SDS011;11317;51.072;17.036;2022-11-12T16:01:41;12.93;;;6.32;;
22298;SDS011;11317;51.072;17.036;2022-11-12T16:04:07;19.92;;;6.95;;
22298;SDS011;11317;51.072;17.036;2022-11-12T16:06:35;14.52;;;6.55;;
22298;SDS011;11317;51.072;17.036;2022-11-12T16:09:01;12.70;;;6.13;;
22298;SDS011;11317;51.072;17.036;2022-11-12T16:11:27;12.25;;;6.68;;
22298;SDS011;11317;51.072;17.036;2022-11-12T16:13:59;13.90;;;7.15;;
22298;SDS011;11317;51.072;17.036;2022-11-12T16:16:27;13.07;;;6.20;;
22298;SDS011;11317;51.072;17.036;2022-11-12T16:18:53;11.95;;;6.38;;
22298;SDS011;11317;51.072;17.036;2022-11-12T16:21:19;14.45;;;6.45;;